sensor_id;sensor_type;location;lat;lon;timestamp;P1;durP1;ratioP1;P2;durP2;ratioP2
38117;SDS011;23928;47.562;7.508;2022-08-25T00:01:18;3.93;;;2.50;;
38117;SDS011;23928;47.562;7.508;2022-08-25T00:03:45;2.40;;;2.20;;
38117;SDS011;23928;47.562;7.508;2022-08-25T00:06:12;3.47;;;2.30;;
38117;SDS011;23928;47.562;7.508;2022-08-25T00:08:38;5.63;;;2.73;;
38117;SDS011;23928;47.562;7.508;2022-08-25T00:11:05;2.60;;;2.40;;
38117;SDS011;23928;47.562;7.508;2022-08-25T00:13:31;4.43;;;2.70;;
38117;SDS011;23928;47.562;7.508;2022-08-25T00:15:57;3.60;;;2.60;;
38117;SDS011;23928;47.562;7.508;2022-08-25T00:18:23;4.13;;;2.80;;
38117;SDS011;23928;47.562;7.508;2022-08-25T00:20:49;3.20;;;2.70;;
38117;SDS011;23928;47.562;7.508;2022-08-25T00:23:14;2.83;;;2.63;;
38117;SDS011;23928;47.562;7.508;2022-08-25T00:25:40;3.27;;;2.47;;
38117;SDS011;23928;47.562;7.508;2022-08-25T00:28:06;3.63;;;3.07;;
38117;SDS011;23928;47.562;7.508;2022-08-25T00:30:31;4.90;;;3.17;;
38117;SDS011;23928;47.562;7.508;2022-08-25T00:32:57;3.43;;;2.73;;
38117;SDS011;23928;47.562;7.508;2022-08-25T00:35:24;4.57;;;3.13;;
38117;SDS011;23928;47.562;7.508;2022-08-25T00:37:50;3.77;;;3.23;;
38117;SDS011;23928;47.562;7.508;2022-08-25T00:40:15;3.70;;;2.80;;
38117;SDS011;23928;47.562;7.508;2022-08-25T00:42:41;4.07;;;3.10;;
38117;SDS011;23928;47.562;7.508;2022-08-25T00:45:07;3.13;;;2.83;;
38117;SDS011;23928;47.562;7.508;2022-08-25T00:47:33;5.30;;;2.93;;
38117;SDS011;23928;47.562;7.508;2022-08-25T00:50:00;3.40;;;3.10;;
38117;SDS011;23928;47.562;7.508;2022-08-25T00:52:40;6.63;;;3.43;;
38117;SDS011;23928;47.562;7.508;2022-08-25T00:55:18;5.00;;;3.20;;
38117;SDS011;23928;47.562;7.508;2022-08-25T00:57:51;4.13;;;2.93;;
38117;SDS011;23928;47.562;7.508;2022-08-25T01:02:49;3.80;;;3.00;;
38117;SDS011;23928;47.562;7.508;2022-08-25T01:05:15;3.10;;;2.90;;
38117;SDS011;23928;47.562;7.508;2022-08-25T01:07:43;2.80;;;2.60;;
38117;SDS011;23928;47.562;7.508;2022-08-25T01:10:09;3.67;;;3.10;;
38117;SDS011;23928;47.562;7.508;2022-08-25T01:12:37;3.23;;;2.67;;
38117;SDS011;23928;47.562;7.508;2022-08-25T01:15:05;3.33;;;2.80;;
38117;SDS011;23928;47.562;7.508;2022-08-25T01:17:50;4.40;;;2.93;;
38117;SDS011;23928;47.562;7.508;2022-08-25T01:20:19;5.70;;;3.27;;
38117;SDS011;23928;47.562;7.508;2022-08-25T01:22:47;4.43;;;2.83;;
38117;SDS011;23928;47.562;7.508;2022-08-25T01:27:58;3.90;;;3.00;;
38117;SDS011;23928;47.562;7.508;2022-08-25T01:30:24;3.40;;;3.10;;
38117;SDS011;23928;47.562;7.508;2022-08-25T01:32:50;3.37;;;2.80;;
38117;SDS011;23928;47.562;7.508;2022-08-25T01:35:15;3.50;;;2.87;;
38117;SDS011;23928;47.562;7.508;2022-08-25T01:37:42;4.60;;;3.03;;
38117;SDS011;23928;47.562;7.508;2022-08-25T01:40:08;3.07;;;2.87;;
38117;SDS011;23928;47.562;7.508;2022-08-25T01:45:30;5.77;;;2.70;;
38117;SDS011;23928;47.562;7.508;2022-08-25T01:47:59;3.40;;;3.03;;
38117;SDS011;23928;47.562;7.508;2022-08-25T01:50:25;2.60;;;2.40;;
38117;SDS011;23928;47.562;7.508;2022-08-25T01:52:59;4.87;;;3.20;;
38117;SDS011;23928;47.562;7.508;2022-08-25T01:55:27;3.50;;;2.93;;
38117;SDS011;23928;47.562;7.508;2022-08-25T01:57:53;3.43;;;3.07;;
38117;SDS011;23928;47.562;7.508;2022-08-25T02:00:21;3.17;;;2.90;;
38117;SDS011;23928;47.562;7.508;2022-08-25T02:02:47;3.70;;;2.90;;
38117;SDS011;23928;47.562;7.508;2022-08-25T02:05:13;3.20;;;2.90;;
38117;SDS011;23928;47.562;7.508;2022-08-25T02:07:40;3.50;;;3.20;;
38117;SDS011;23928;47.562;7.508;2022-08-25T02:10:07;2.77;;;2.53;;
38117;SDS011;23928;47.562;7.508;2022-08-25T02:12:36;3.13;;;2.83;;
38117;SDS011;23928;47.562;7.508;2022-08-25T02:15:03;3.67;;;2.93;;
38117;SDS011;23928;47.562;7.508;2022-08-25T02:17:30;2.93;;;2.73;;
38117;SDS011;23928;47.562;7.508;2022-08-25T02:19:55;3.63;;;3.17;;
38117;SDS011;23928;47.562;7.508;2022-08-25T02:22:22;3.27;;;2.87;;
38117;SDS011;23928;47.562;7.508;2022-08-25T02:24:48;3.17;;;2.90;;
38117;SDS011;23928;47.562;7.508;2022-08-25T02:27:14;3.67;;;3.37;;
38117;SDS011;23928;47.562;7.508;2022-08-25T02:29:40;3.17;;;2.87;;
38117;SDS011;23928;47.562;7.508;2022-08-25T02:32:06;5.33;;;3.17;;
38117;SDS011;23928;47.562;7.508;2022-08-25T02:34:32;2.87;;;2.67;;
38117;SDS011;23928;47.562;7.508;2022-08-25T02:36:59;4.00;;;3.27;;
38117;SDS011;23928;47.562;7.508;2022-08-25T02:39:26;3.23;;;2.93;;
38117;SDS011;23928;47.562;7.508;2022-08-25T02:41:52;3.23;;;2.83;;
38117;SDS011;23928;47.562;7.508;2022-08-25T02:44:17;3.50;;;3.03;;
38117;SDS011;23928;47.562;7.508;2022-08-25T02:46:43;3.97;;;3.57;;
38117;SDS011;23928;47.562;7.508;2022-08-25T02:49:09;3.53;;;3.23;;
38117;SDS011;23928;47.562;7.508;2022-08-25T02:51:34;3.60;;;3.30;;
38117;SDS011;23928;47.562;7.508;2022-08-25T02:54:01;4.90;;;3.53;;
38117;SDS011;23928;47.562;7.508;2022-08-25T02:56:28;3.47;;;3.17;;
38117;SDS011;23928;47.562;7.508;2022-08-25T02:58:56;4.17;;;3.30;;
38117;SDS011;23928;47.562;7.508;2022-08-25T03:01:21;5.07;;;3.33;;
38117;SDS011;23928;47.562;7.508;2022-08-25T03:03:47;4.50;;;3.57;;
38117;SDS011;23928;47.562;7.508;2022-08-25T03:06:15;3.90;;;3.50;;
38117;SDS011;23928;47.562;7.508;2022-08-25T03:08:44;3.63;;;3.33;;
38117;SDS011;23928;47.562;7.508;2022-08-25T03:11:10;3.10;;;2.70;;
38117;SDS011;23928;47.562;7.508;2022-08-25T03:13:36;3.60;;;3.30;;
38117;SDS011;23928;47.562;7.508;2022-08-25T03:16:03;3.87;;;3.40;;
38117;SDS011;23928;47.562;7.508;2022-08-25T03:18:30;3.20;;;2.90;;
38117;SDS011;23928;47.562;7.508;2022-08-25T03:20:55;3.73;;;3.20;;
38117;SDS011;23928;47.562;7.508;2022-08-25T03:23:22;3.83;;;3.00;;
38117;SDS011;23928;47.562;7.508;2022-08-25T03:25:47;4.33;;;3.17;;
38117;SDS011;23928;47.562;7.508;2022-08-25T03:28:31;3.43;;;3.00;;
38117;SDS011;23928;47.562;7.508;2022-08-25T03:31:00;5.07;;;3.00;;
38117;SDS011;23928;47.562;7.508;2022-08-25T03:33:27;3.57;;;3.27;;
38117;SDS011;23928;47.562;7.508;2022-08-25T03:35:54;5.73;;;2.93;;
38117;SDS011;23928;47.562;7.508;2022-08-25T03:38:21;4.23;;;2.93;;
38117;SDS011;23928;47.562;7.508;2022-08-25T03:40:47;5.20;;;3.20;;
38117;SDS011;23928;47.562;7.508;2022-08-25T03:43:13;8.00;;;3.37;;
38117;SDS011;23928;47.562;7.508;2022-08-25T03:45:40;3.40;;;3.10;;
38117;SDS011;23928;47.562;7.508;2022-08-25T03:48:06;3.10;;;2.80;;
38117;SDS011;23928;47.562;7.508;2022-08-25T03:50:33;3.40;;;3.10;;
38117;SDS011;23928;47.562;7.508;2022-08-25T03:52:58;3.80;;;2.97;;
38117;SDS011;23928;47.562;7.508;2022-08-25T03:55:24;3.13;;;2.73;;
38117;SDS011;23928;47.562;7.508;2022-08-25T03:57:51;3.47;;;3.17;;
38117;SDS011;23928;47.562;7.508;2022-08-25T04:00:18;3.40;;;3.10;;
38117;SDS011;23928;47.562;7.508;2022-08-25T04:02:45;4.30;;;2.83;;
38117;SDS011;23928;47.562;7.508;2022-08-25T04:05:11;3.77;;;2.97;;
38117;SDS011;23928;47.562;7.508;2022-08-25T04:07:37;4.00;;;3.60;;
38117;SDS011;23928;47.562;7.508;2022-08-25T04:10:04;3.10;;;2.80;;
38117;SDS011;23928;47.562;7.508;2022-08-25T04:12:31;3.47;;;3.10;;
38117;SDS011;23928;47.562;7.508;2022-08-25T04:14:57;3.57;;;2.90;;
38117;SDS011;23928;47.562;7.508;2022-08-25T04:17:23;3.20;;;2.67;;
38117;SDS011;23928;47.562;7.508;2022-08-25T04:19:48;4.70;;;3.47;;
38117;SDS011;23928;47.562;7.508;2022-08-25T04:22:15;3.30;;;2.97;;
38117;SDS011;23928;47.562;7.508;2022-08-25T04:24:41;4.27;;;3.00;;
38117;SDS011;23928;47.562;7.508;2022-08-25T04:27:06;3.67;;;3.13;;
38117;SDS011;23928;47.562;7.508;2022-08-25T04:29:32;3.77;;;3.07;;
38117;SDS011;23928;47.562;7.508;2022-08-25T04:31:57;3.60;;;3.30;;
38117;SDS011;23928;47.562;7.508;2022-08-25T04:34:24;3.40;;;3.10;;
38117;SDS011;23928;47.562;7.508;2022-08-25T04:36:50;3.77;;;2.90;;
38117;SDS011;23928;47.562;7.508;2022-08-25T04:39:17;3.60;;;3.00;;
38117;SDS011;23928;47.562;7.508;2022-08-25T04:41:44;4.57;;;3.40;;
38117;SDS011;23928;47.562;7.508;2022-08-25T04:44:14;3.80;;;3.10;;
38117;SDS011;23928;47.562;7.508;2022-08-25T04:46:40;4.63;;;3.47;;
38117;SDS011;23928;47.562;7.508;2022-08-25T04:49:05;4.27;;;3.27;;
38117;SDS011;23928;47.562;7.508;2022-08-25T04:51:32;3.50;;;3.20;;
38117;SDS011;23928;47.562;7.508;2022-08-25T04:54:00;5.90;;;3.80;;
38117;SDS011;23928;47.562;7.508;2022-08-25T04:56:29;3.77;;;3.47;;
38117;SDS011;23928;47.562;7.508;2022-08-25T04:59:00;3.77;;;3.20;;
38117;SDS011;23928;47.562;7.508;2022-08-25T05:01:26;3.67;;;3.37;;
38117;SDS011;23928;47.562;7.508;2022-08-25T05:03:53;3.40;;;3.10;;
38117;SDS011;23928;47.562;7.508;2022-08-25T05:06:21;6.60;;;3.57;;
38117;SDS011;23928;47.562;7.508;2022-08-25T05:08:47;3.23;;;3.00;;
38117;SDS011;23928;47.562;7.508;2022-08-25T05:14:54;5.17;;;3.40;;
38117;SDS011;23928;47.562;7.508;2022-08-25T05:17:47;3.63;;;3.33;;
38117;SDS011;23928;47.562;7.508;2022-08-25T05:20:22;3.33;;;2.97;;
38117;SDS011;23928;47.562;7.508;2022-08-25T05:22:48;4.13;;;3.00;;
38117;SDS011;23928;47.562;7.508;2022-08-25T05:25:14;8.03;;;2.77;;
38117;SDS011;23928;47.562;7.508;2022-08-25T05:27:49;4.10;;;3.50;;
38117;SDS011;23928;47.562;7.508;2022-08-25T05:30:25;3.70;;;3.20;;
38117;SDS011;23928;47.562;7.508;2022-08-25T05:33:03;3.77;;;3.37;;
38117;SDS011;23928;47.562;7.508;2022-08-25T05:35:43;5.53;;;3.87;;
38117;SDS011;23928;47.562;7.508;2022-08-25T05:38:19;3.63;;;3.20;;
38117;SDS011;23928;47.562;7.508;2022-08-25T05:41:00;4.33;;;3.73;;
38117;SDS011;23928;47.562;7.508;2022-08-25T05:53:09;3.70;;;3.30;;
38117;SDS011;23928;47.562;7.508;2022-08-25T05:56:14;5.67;;;4.40;;
38117;SDS011;23928;47.562;7.508;2022-08-25T05:59:11;5.40;;;3.87;;
38117;SDS011;23928;47.562;7.508;2022-08-25T06:05:17;7.13;;;4.20;;
38117;SDS011;23928;47.562;7.508;2022-08-25T06:07:46;6.30;;;4.70;;
38117;SDS011;23928;47.562;7.508;2022-08-25T06:10:13;6.57;;;4.63;;
38117;SDS011;23928;47.562;7.508;2022-08-25T06:12:42;6.67;;;5.00;;
38117;SDS011;23928;47.562;7.508;2022-08-25T06:15:10;5.47;;;4.97;;
38117;SDS011;23928;47.562;7.508;2022-08-25T06:17:39;5.03;;;4.47;;
38117;SDS011;23928;47.562;7.508;2022-08-25T06:20:10;7.60;;;5.60;;
38117;SDS011;23928;47.562;7.508;2022-08-25T06:22:38;6.63;;;4.17;;
38117;SDS011;23928;47.562;7.508;2022-08-25T06:25:05;5.40;;;4.90;;
38117;SDS011;23928;47.562;7.508;2022-08-25T06:27:33;5.07;;;4.27;;
38117;SDS011;23928;47.562;7.508;2022-08-25T06:29:59;7.57;;;5.23;;
38117;SDS011;23928;47.562;7.508;2022-08-25T06:32:35;5.40;;;4.90;;
38117;SDS011;23928;47.562;7.508;2022-08-25T06:35:04;6.90;;;4.50;;
38117;SDS011;23928;47.562;7.508;2022-08-25T06:37:31;8.03;;;4.80;;
38117;SDS011;23928;47.562;7.508;2022-08-25T06:39:56;5.63;;;5.13;;
38117;SDS011;23928;47.562;7.508;2022-08-25T06:42:22;9.17;;;5.80;;
38117;SDS011;23928;47.562;7.508;2022-08-25T06:44:48;6.33;;;5.73;;
38117;SDS011;23928;47.562;7.508;2022-08-25T06:47:14;7.30;;;4.87;;
38117;SDS011;23928;47.562;7.508;2022-08-25T06:49:44;6.37;;;5.10;;
38117;SDS011;23928;47.562;7.508;2022-08-25T06:52:10;6.23;;;4.90;;
38117;SDS011;23928;47.562;7.508;2022-08-25T06:54:36;6.67;;;4.90;;
38117;SDS011;23928;47.562;7.508;2022-08-25T06:57:03;6.33;;;4.53;;
38117;SDS011;23928;47.562;7.508;2022-08-25T06:59:30;5.53;;;4.53;;
38117;SDS011;23928;47.562;7.508;2022-08-25T07:01:56;8.60;;;4.73;;
38117;SDS011;23928;47.562;7.508;2022-08-25T07:04:21;6.40;;;3.67;;
38117;SDS011;23928;47.562;7.508;2022-08-25T07:06:47;6.40;;;4.30;;
38117;SDS011;23928;47.562;7.508;2022-08-25T07:09:13;6.83;;;4.10;;
38117;SDS011;23928;47.562;7.508;2022-08-25T07:11:39;4.27;;;3.87;;
38117;SDS011;23928;47.562;7.508;2022-08-25T07:14:07;5.43;;;3.87;;
38117;SDS011;23928;47.562;7.508;2022-08-25T07:16:34;5.40;;;3.80;;
38117;SDS011;23928;47.562;7.508;2022-08-25T07:19:01;6.97;;;4.07;;
38117;SDS011;23928;47.562;7.508;2022-08-25T07:21:28;5.10;;;4.00;;
38117;SDS011;23928;47.562;7.508;2022-08-25T07:23:55;4.80;;;3.30;;
38117;SDS011;23928;47.562;7.508;2022-08-25T07:26:24;5.97;;;3.30;;
38117;SDS011;23928;47.562;7.508;2022-08-25T07:28:53;6.47;;;3.53;;
38117;SDS011;23928;47.562;7.508;2022-08-25T07:31:19;4.87;;;3.27;;
38117;SDS011;23928;47.562;7.508;2022-08-25T07:33:45;3.90;;;3.50;;
38117;SDS011;23928;47.562;7.508;2022-08-25T07:36:30;3.80;;;3.30;;
38117;SDS011;23928;47.562;7.508;2022-08-25T07:38:56;5.93;;;3.40;;
38117;SDS011;23928;47.562;7.508;2022-08-25T07:41:23;3.83;;;2.80;;
38117;SDS011;23928;47.562;7.508;2022-08-25T07:43:50;3.53;;;2.80;;
38117;SDS011;23928;47.562;7.508;2022-08-25T07:46:15;4.50;;;2.97;;
38117;SDS011;23928;47.562;7.508;2022-08-25T07:48:41;5.10;;;3.40;;
38117;SDS011;23928;47.562;7.508;2022-08-25T07:51:08;4.27;;;3.13;;
38117;SDS011;23928;47.562;7.508;2022-08-25T07:53:35;5.57;;;3.43;;
38117;SDS011;23928;47.562;7.508;2022-08-25T07:56:01;3.27;;;2.97;;
38117;SDS011;23928;47.562;7.508;2022-08-25T07:58:27;3.20;;;2.90;;
38117;SDS011;23928;47.562;7.508;2022-08-25T08:00:53;4.43;;;3.20;;
38117;SDS011;23928;47.562;7.508;2022-08-25T08:03:19;3.53;;;3.23;;
38117;SDS011;23928;47.562;7.508;2022-08-25T08:05:45;3.73;;;3.30;;
38117;SDS011;23928;47.562;7.508;2022-08-25T08:08:11;5.60;;;3.57;;
38117;SDS011;23928;47.562;7.508;2022-08-25T08:10:38;4.77;;;2.90;;
38117;SDS011;23928;47.562;7.508;2022-08-25T08:13:04;3.00;;;2.80;;
38117;SDS011;23928;47.562;7.508;2022-08-25T08:15:30;7.73;;;3.43;;
38117;SDS011;23928;47.562;7.508;2022-08-25T08:17:56;5.93;;;2.93;;
38117;SDS011;23928;47.562;7.508;2022-08-25T08:20:23;4.33;;;2.93;;
38117;SDS011;23928;47.562;7.508;2022-08-25T08:22:48;3.30;;;3.10;;
38117;SDS011;23928;47.562;7.508;2022-08-25T08:25:14;3.33;;;3.03;;
38117;SDS011;23928;47.562;7.508;2022-08-25T08:27:40;3.10;;;2.80;;
38117;SDS011;23928;47.562;7.508;2022-08-25T08:30:07;3.30;;;3.00;;
38117;SDS011;23928;47.562;7.508;2022-08-25T08:32:33;4.17;;;3.03;;
38117;SDS011;23928;47.562;7.508;2022-08-25T08:34:59;3.70;;;2.60;;
38117;SDS011;23928;47.562;7.508;2022-08-25T08:37:25;3.37;;;2.60;;
38117;SDS011;23928;47.562;7.508;2022-08-25T08:39:52;3.87;;;3.00;;
38117;SDS011;23928;47.562;7.508;2022-08-25T08:55:10;4.17;;;3.07;;
38117;SDS011;23928;47.562;7.508;2022-08-25T08:57:47;3.30;;;3.00;;
38117;SDS011;23928;47.562;7.508;2022-08-25T09:00:15;4.40;;;3.13;;
38117;SDS011;23928;47.562;7.508;2022-08-25T09:02:45;4.03;;;3.40;;
38117;SDS011;23928;47.562;7.508;2022-08-25T09:05:31;3.73;;;3.37;;
38117;SDS011;23928;47.562;7.508;2022-08-25T09:08:11;5.87;;;3.00;;
38117;SDS011;23928;47.562;7.508;2022-08-25T09:11:00;3.60;;;3.30;;
38117;SDS011;23928;47.562;7.508;2022-08-25T09:13:35;3.90;;;3.17;;
38117;SDS011;23928;47.562;7.508;2022-08-25T09:16:15;5.03;;;2.97;;
38117;SDS011;23928;47.562;7.508;2022-08-25T09:19:19;3.60;;;2.97;;
38117;SDS011;23928;47.562;7.508;2022-08-25T09:30:21;3.33;;;3.10;;
38117;SDS011;23928;47.562;7.508;2022-08-25T09:32:50;3.67;;;3.20;;
38117;SDS011;23928;47.562;7.508;2022-08-25T09:35:31;3.93;;;3.20;;
38117;SDS011;23928;47.562;7.508;2022-08-25T09:38:01;5.40;;;3.27;;
38117;SDS011;23928;47.562;7.508;2022-08-25T09:40:35;4.03;;;3.30;;
38117;SDS011;23928;47.562;7.508;2022-08-25T09:43:03;4.70;;;2.87;;
38117;SDS011;23928;47.562;7.508;2022-08-25T09:45:44;3.57;;;3.23;;
38117;SDS011;23928;47.562;7.508;2022-08-25T09:48:32;3.03;;;2.67;;
38117;SDS011;23928;47.562;7.508;2022-08-25T09:51:16;4.07;;;2.93;;
38117;SDS011;23928;47.562;7.508;2022-08-25T09:56:20;3.73;;;3.07;;
38117;SDS011;23928;47.562;7.508;2022-08-25T09:58:51;4.27;;;2.87;;
38117;SDS011;23928;47.562;7.508;2022-08-25T10:01:19;4.10;;;2.70;;
38117;SDS011;23928;47.562;7.508;2022-08-25T10:06:18;4.20;;;2.70;;
38117;SDS011;23928;47.562;7.508;2022-08-25T10:11:28;7.93;;;2.83;;
38117;SDS011;23928;47.562;7.508;2022-08-25T10:16:39;4.00;;;3.47;;
38117;SDS011;23928;47.562;7.508;2022-08-25T10:22:23;5.47;;;3.10;;
38117;SDS011;23928;47.562;7.508;2022-08-25T10:24:56;3.20;;;2.90;;
38117;SDS011;23928;47.562;7.508;2022-08-25T10:27:46;2.80;;;2.50;;
38117;SDS011;23928;47.562;7.508;2022-08-25T10:30:22;3.13;;;2.53;;
38117;SDS011;23928;47.562;7.508;2022-08-25T10:49:47;2.50;;;2.30;;
38117;SDS011;23928;47.562;7.508;2022-08-25T10:52:37;2.83;;;2.43;;
38117;SDS011;23928;47.562;7.508;2022-08-25T10:55:29;3.70;;;2.57;;
38117;SDS011;23928;47.562;7.508;2022-08-25T11:03:41;2.80;;;2.60;;
38117;SDS011;23928;47.562;7.508;2022-08-25T11:06:19;2.60;;;2.40;;
38117;SDS011;23928;47.562;7.508;2022-08-25T11:08:56;3.60;;;2.37;;
38117;SDS011;23928;47.562;7.508;2022-08-25T11:11:34;4.40;;;2.70;;
38117;SDS011;23928;47.562;7.508;2022-08-25T11:14:11;2.33;;;2.17;;
38117;SDS011;23928;47.562;7.508;2022-08-25T11:17:00;2.73;;;2.50;;
38117;SDS011;23928;47.562;7.508;2022-08-25T11:24:54;2.47;;;2.20;;
38117;SDS011;23928;47.562;7.508;2022-08-25T11:30:16;3.37;;;2.33;;
38117;SDS011;23928;47.562;7.508;2022-08-25T11:32:43;2.97;;;2.67;;
38117;SDS011;23928;47.562;7.508;2022-08-25T11:35:13;3.13;;;2.43;;
38117;SDS011;23928;47.562;7.508;2022-08-25T11:37:46;2.70;;;2.50;;
38117;SDS011;23928;47.562;7.508;2022-08-25T11:46:34;3.90;;;2.43;;
38117;SDS011;23928;47.562;7.508;2022-08-25T11:51:45;3.00;;;2.43;;
38117;SDS011;23928;47.562;7.508;2022-08-25T11:54:28;2.90;;;2.60;;
38117;SDS011;23928;47.562;7.508;2022-08-25T11:57:01;2.47;;;2.27;;
38117;SDS011;23928;47.562;7.508;2022-08-25T12:02:29;3.50;;;2.13;;
38117;SDS011;23928;47.562;7.508;2022-08-25T12:04:58;4.00;;;2.20;;
38117;SDS011;23928;47.562;7.508;2022-08-25T12:07:26;2.90;;;2.20;;
38117;SDS011;23928;47.562;7.508;2022-08-25T12:12:26;3.83;;;2.17;;
38117;SDS011;23928;47.562;7.508;2022-08-25T12:14:53;2.67;;;2.40;;
38117;SDS011;23928;47.562;7.508;2022-08-25T12:17:23;2.83;;;2.50;;
38117;SDS011;23928;47.562;7.508;2022-08-25T12:19:52;2.20;;;2.00;;
38117;SDS011;23928;47.562;7.508;2022-08-25T12:25:00;2.83;;;2.20;;
38117;SDS011;23928;47.562;7.508;2022-08-25T12:27:40;2.10;;;2.00;;
38117;SDS011;23928;47.562;7.508;2022-08-25T12:36:03;2.40;;;1.93;;
38117;SDS011;23928;47.562;7.508;2022-08-25T12:41:17;4.00;;;2.27;;
38117;SDS011;23928;47.562;7.508;2022-08-25T12:43:49;2.83;;;2.33;;
38117;SDS011;23928;47.562;7.508;2022-08-25T12:54:15;1.87;;;1.77;;
38117;SDS011;23928;47.562;7.508;2022-08-25T12:57:44;1.97;;;1.87;;
38117;SDS011;23928;47.562;7.508;2022-08-25T12:59:40;2.17;;;2.03;;
38117;SDS011;23928;47.562;7.508;2022-08-25T13:10:55;1.90;;;1.70;;
38117;SDS011;23928;47.562;7.508;2022-08-25T13:16:50;2.83;;;2.13;;
38117;SDS011;23928;47.562;7.508;2022-08-25T13:19:20;2.30;;;2.10;;
38117;SDS011;23928;47.562;7.508;2022-08-25T13:21:47;1.83;;;1.73;;
38117;SDS011;23928;47.562;7.508;2022-08-25T13:26:45;2.47;;;1.90;;
38117;SDS011;23928;47.562;7.508;2022-08-25T13:29:25;3.67;;;1.80;;
38117;SDS011;23928;47.562;7.508;2022-08-25T13:31:56;2.23;;;2.03;;
38117;SDS011;23928;47.562;7.508;2022-08-25T13:34:29;5.30;;;2.00;;
38117;SDS011;23928;47.562;7.508;2022-08-25T13:37:03;2.80;;;1.90;;
38117;SDS011;23928;47.562;7.508;2022-08-25T13:43:03;2.30;;;2.10;;
38117;SDS011;23928;47.562;7.508;2022-08-25T13:45:34;3.60;;;1.80;;
38117;SDS011;23928;47.562;7.508;2022-08-25T13:48:07;1.83;;;1.60;;
38117;SDS011;23928;47.562;7.508;2022-08-25T13:50:37;2.43;;;1.60;;
38117;SDS011;23928;47.562;7.508;2022-08-25T13:53:12;2.10;;;1.80;;
38117;SDS011;23928;47.562;7.508;2022-08-25T13:58:12;5.53;;;1.63;;
38117;SDS011;23928;47.562;7.508;2022-08-25T14:03:40;2.90;;;1.70;;
38117;SDS011;23928;47.562;7.508;2022-08-25T14:09:03;1.80;;;1.70;;
38117;SDS011;23928;47.562;7.508;2022-08-25T14:11:32;1.93;;;1.53;;
38117;SDS011;23928;47.562;7.508;2022-08-25T14:14:30;1.90;;;1.80;;
38117;SDS011;23928;47.562;7.508;2022-08-25T14:17:05;2.20;;;2.10;;
38117;SDS011;23928;47.562;7.508;2022-08-25T14:19:42;2.40;;;1.77;;
38117;SDS011;23928;47.562;7.508;2022-08-25T14:22:11;1.90;;;1.80;;
38117;SDS011;23928;47.562;7.508;2022-08-25T14:24:39;2.17;;;1.97;;
38117;SDS011;23928;47.562;7.508;2022-08-25T14:27:08;3.07;;;2.20;;
38117;SDS011;23928;47.562;7.508;2022-08-25T14:29:34;2.60;;;1.63;;
38117;SDS011;23928;47.562;7.508;2022-08-25T14:31:59;3.10;;;2.23;;
38117;SDS011;23928;47.562;7.508;2022-08-25T14:34:29;2.13;;;1.70;;
38117;SDS011;23928;47.562;7.508;2022-08-25T14:37:00;2.10;;;1.90;;
38117;SDS011;23928;47.562;7.508;2022-08-25T14:39:30;1.73;;;1.63;;
38117;SDS011;23928;47.562;7.508;2022-08-25T14:41:56;1.90;;;1.80;;
38117;SDS011;23928;47.562;7.508;2022-08-25T14:44:22;4.67;;;2.00;;
38117;SDS011;23928;47.562;7.508;2022-08-25T14:46:51;2.40;;;2.10;;
38117;SDS011;23928;47.562;7.508;2022-08-25T14:49:20;2.10;;;1.90;;
38117;SDS011;23928;47.562;7.508;2022-08-25T14:51:50;2.87;;;1.83;;
38117;SDS011;23928;47.562;7.508;2022-08-25T14:54:17;2.37;;;2.00;;
38117;SDS011;23928;47.562;7.508;2022-08-25T14:56:45;1.80;;;1.70;;
38117;SDS011;23928;47.562;7.508;2022-08-25T14:59:12;2.43;;;2.00;;
38117;SDS011;23928;47.562;7.508;2022-08-25T15:01:38;2.37;;;2.17;;
38117;SDS011;23928;47.562;7.508;2022-08-25T15:04:06;2.40;;;2.10;;
38117;SDS011;23928;47.562;7.508;2022-08-25T15:06:44;2.72;;;2.35;;
38117;SDS011;23928;47.562;7.508;2022-08-25T15:09:12;3.97;;;2.10;;
38117;SDS011;23928;47.562;7.508;2022-08-25T15:11:44;3.07;;;2.10;;
38117;SDS011;23928;47.562;7.508;2022-08-25T15:14:14;1.92;;;1.80;;
38117;SDS011;23928;47.562;7.508;2022-08-25T15:16:45;2.57;;;1.87;;
38117;SDS011;23928;47.562;7.508;2022-08-25T15:19:14;2.23;;;1.80;;
38117;SDS011;23928;47.562;7.508;2022-08-25T15:21:42;2.08;;;1.88;;
38117;SDS011;23928;47.562;7.508;2022-08-25T15:24:09;2.75;;;2.08;;
38117;SDS011;23928;47.562;7.508;2022-08-25T15:26:41;5.95;;;2.70;;
38117;SDS011;23928;47.562;7.508;2022-08-25T15:29:09;2.57;;;2.20;;
38117;SDS011;23928;47.562;7.508;2022-08-25T15:31:35;2.10;;;2.00;;
38117;SDS011;23928;47.562;7.508;2022-08-25T15:34:03;3.55;;;2.33;;
38117;SDS011;23928;47.562;7.508;2022-08-25T15:36:30;5.70;;;2.67;;
38117;SDS011;23928;47.562;7.508;2022-08-25T15:38:57;2.40;;;2.20;;
38117;SDS011;23928;47.562;7.508;2022-08-25T15:41:23;1.93;;;1.63;;
38117;SDS011;23928;47.562;7.508;2022-08-25T15:43:48;3.60;;;2.30;;
38117;SDS011;23928;47.562;7.508;2022-08-25T15:46:15;2.00;;;1.80;;
38117;SDS011;23928;47.562;7.508;2022-08-25T15:48:44;2.20;;;2.00;;
38117;SDS011;23928;47.562;7.508;2022-08-25T15:51:11;2.95;;;2.00;;
38117;SDS011;23928;47.562;7.508;2022-08-25T15:53:39;2.47;;;2.00;;
38117;SDS011;23928;47.562;7.508;2022-08-25T15:56:04;2.97;;;2.10;;
38117;SDS011;23928;47.562;7.508;2022-08-25T15:58:31;1.93;;;1.70;;
38117;SDS011;23928;47.562;7.508;2022-08-25T16:00:58;2.90;;;2.23;;
38117;SDS011;23928;47.562;7.508;2022-08-25T16:03:24;2.70;;;1.80;;
38117;SDS011;23928;47.562;7.508;2022-08-25T16:05:51;3.00;;;1.90;;
38117;SDS011;23928;47.562;7.508;2022-08-25T16:08:16;2.50;;;1.90;;
38117;SDS011;23928;47.562;7.508;2022-08-25T16:10:42;2.33;;;1.90;;
38117;SDS011;23928;47.562;7.508;2022-08-25T16:13:09;2.43;;;2.07;;
38117;SDS011;23928;47.562;7.508;2022-08-25T16:15:35;2.30;;;2.07;;
38117;SDS011;23928;47.562;7.508;2022-08-25T16:18:03;2.87;;;2.33;;
38117;SDS011;23928;47.562;7.508;2022-08-25T16:20:30;1.83;;;1.73;;
38117;SDS011;23928;47.562;7.508;2022-08-25T16:22:57;2.50;;;1.80;;
38117;SDS011;23928;47.562;7.508;2022-08-25T16:25:25;3.23;;;2.10;;
38117;SDS011;23928;47.562;7.508;2022-08-25T16:27:51;4.77;;;2.20;;
38117;SDS011;23928;47.562;7.508;2022-08-25T16:30:17;8.40;;;2.87;;
38117;SDS011;23928;47.562;7.508;2022-08-25T16:32:43;4.13;;;2.67;;
38117;SDS011;23928;47.562;7.508;2022-08-25T16:35:10;5.13;;;2.87;;
38117;SDS011;23928;47.562;7.508;2022-08-25T16:37:37;3.07;;;2.40;;
38117;SDS011;23928;47.562;7.508;2022-08-25T16:40:04;2.50;;;2.30;;
38117;SDS011;23928;47.562;7.508;2022-08-25T16:42:31;3.37;;;2.23;;
38117;SDS011;23928;47.562;7.508;2022-08-25T16:44:57;3.73;;;2.63;;
38117;SDS011;23928;47.562;7.508;2022-08-25T16:47:23;15.47;;;4.43;;
38117;SDS011;23928;47.562;7.508;2022-08-25T16:49:48;12.53;;;4.50;;
38117;SDS011;23928;47.562;7.508;2022-08-25T16:52:14;5.00;;;3.00;;
38117;SDS011;23928;47.562;7.508;2022-08-25T16:54:59;2.20;;;2.10;;
38117;SDS011;23928;47.562;7.508;2022-08-25T16:57:36;3.27;;;2.20;;
38117;SDS011;23928;47.562;7.508;2022-08-25T17:00:07;3.27;;;2.47;;
38117;SDS011;23928;47.562;7.508;2022-08-25T17:02:36;2.43;;;2.23;;
38117;SDS011;23928;47.562;7.508;2022-08-25T17:05:02;2.77;;;2.40;;
38117;SDS011;23928;47.562;7.508;2022-08-25T17:07:28;3.13;;;2.50;;
38117;SDS011;23928;47.562;7.508;2022-08-25T17:09:53;2.20;;;2.10;;
38117;SDS011;23928;47.562;7.508;2022-08-25T17:12:22;2.83;;;2.63;;
38117;SDS011;23928;47.562;7.508;2022-08-25T17:14:48;3.47;;;2.13;;
38117;SDS011;23928;47.562;7.508;2022-08-25T17:17:13;2.73;;;2.53;;
38117;SDS011;23928;47.562;7.508;2022-08-25T17:19:39;3.00;;;2.60;;
38117;SDS011;23928;47.562;7.508;2022-08-25T17:22:05;4.10;;;2.40;;
38117;SDS011;23928;47.562;7.508;2022-08-25T17:24:32;2.70;;;2.40;;
38117;SDS011;23928;47.562;7.508;2022-08-25T17:26:58;5.33;;;2.73;;
38117;SDS011;23928;47.562;7.508;2022-08-25T17:29:25;2.60;;;2.20;;
38117;SDS011;23928;47.562;7.508;2022-08-25T17:31:50;3.60;;;2.30;;